Gil Vicente — CSKG — position and weather

sailwx.info

Track history (hours):
 
Tides and Currents Weather Stations Pressure Air Temp Water Temp Dewpoint Dewpoint Depression Visibility Wind Speed Wind Dir Waves Ship Positions

Gil Vicente

Last reported at 2016-Jul-24 02:33 UTC. Time now 2016-Jul-24 03:02 UTC.
Position N 38°39' W 009°05'.

Length 49 m.

Type: Passenger vessel. MMSI: 263701390.

Date/timePositionNaut miles runAvg speedWind from/ knotsBaromVisibWave heightAir tempDewpointWater temp
2016-Jul-24 02:33N 38°39' W 009°05'0 0.0
2016-Jul-24 01:33N 38°39' W 009°05'0 0.4
2016-Jul-24 00:33N 38°39' W 009°05'0 0.2
2016-Jul-23 23:33N 38°39' W 009°05'0 0.1
2016-Jul-23 22:33N 38°39' W 009°05'1 1.4
2016-Jul-23 21:33N 38°40' W 009°07'0 0.3
2016-Jul-23 20:33N 38°40' W 009°07'0 0.0
2016-Jul-23 19:33N 38°40' W 009°07'0 0.5
2016-Jul-23 18:34N 38°40' W 009°07'1 0.7
2016-Jul-23 17:33N 38°41' W 009°08'0 0.5
2016-Jul-23 16:33N 38°40' W 009°08'0 0.1
2016-Jul-23 15:33N 38°41' W 009°08'0 0.2
2016-Jul-23 14:33N 38°41' W 009°08'3 2.7
2016-Jul-23 13:33N 38°39' W 009°05'0 0.0
2016-Jul-23 12:33N 38°39' W 009°05'1 1.2
2016-Jul-23 11:33N 38°40' W 009°06'0 0.1
2016-Jul-23 10:33N 38°40' W 009°06'0 0.0
2016-Jul-23 09:33N 38°40' W 009°06'0 0.4
2016-Jul-23 08:33N 38°40' W 009°06'0 0.3
2016-Jul-23 07:33N 38°40' W 009°06'0 0.2
2016-Jul-23 06:33N 38°40' W 009°06'2 1.1
2016-Jul-23 04:33N 38°42' W 009°08'3 1.1
2016-Jul-23 01:25N 38°39' W 009°05'0 0.2
2016-Jul-23 00:33N 38°39' W 009°05'0 0.2
2016-Jul-22 23:31N 38°39' W 009°05'0 0.3
2016-Jul-22 22:33N 38°39' W 009°05'1 1.2
2016-Jul-22 21:33N 38°40' W 009°06'0 0.2
2016-Jul-22 20:33N 38°40' W 009°07'2 1.7
2016-Jul-22 19:33N 38°39' W 009°05'0 0.1
2016-Jul-22 18:33N 38°39' W 009°05'1 1.0
2016-Jul-22 17:33N 38°39' W 009°06'3 3.0
2016-Jul-22 16:33N 38°42' W 009°08'4 3.7
2016-Jul-22 15:32N 38°39' W 009°05'0 0.0
2016-Jul-22 12:25N 38°39' W 009°05'1 1.6
2016-Jul-22 11:33N 38°40' W 009°06'1 0.7
2016-Jul-22 10:33N 38°39' W 009°06'1 0.8
2016-Jul-22 09:33N 38°39' W 009°05'0 0.0
2016-Jul-22 08:33N 38°39' W 009°05'0 0.1
2016-Jul-22 07:33N 38°39' W 009°05'0 0.0
2016-Jul-22 05:34N 38°39' W 009°05'0 0.0
2016-Jul-21 20:18N 38°39' W 009°05'3 3.4
2016-Jul-21 19:33N 38°40' W 009°08'1 1.5
2016-Jul-21 18:33N 38°40' W 009°06'3 2.9
2016-Jul-21 17:33N 38°42' W 009°08'0 0.3
2016-Jul-21 16:33N 38°42' W 009°08'1 1.5
2016-Jul-21 15:33N 38°41' W 009°08'3 2.9
2016-Jul-21 14:33N 38°39' W 009°05'1 1.4
2016-Jul-21 13:33N 38°40' W 009°06'0 0.1
2016-Jul-21 12:33N 38°40' W 009°06'0 0.1
2016-Jul-21 11:33N 38°40' W 009°07'1 0.7
2016-Jul-21 10:33N 38°39' W 009°06'1 0.9
2016-Jul-21 09:33N 38°39' W 009°05'0 0.0
2016-Jul-21 08:33N 38°39' W 009°05'0 0.0
2016-Jul-21 07:33N 38°39' W 009°05'1 1.4
2016-Jul-21 06:33N 38°40' W 009°06'1 0.1
2016-Jul-20 20:31N 38°39' W 009°05'0 0.0
2016-Jul-20 19:33N 38°39' W 009°05'4 3.5
2016-Jul-20 18:33N 38°41' W 009°08'2 1.9
2016-Jul-20 17:34N 38°40' W 009°07'2 1.8
2016-Jul-20 16:34N 38°39' W 009°05'0 0.0
2016-Jul-20 15:34N 38°39' W 009°05'0 0.0
2016-Jul-20 14:33N 38°39' W 009°05'0 0.0
2016-Jul-20 10:27N 38°39' W 009°05'1 1.0
2016-Jul-20 09:33N 38°40' W 009°06'0 0.3
2016-Jul-20 08:33N 38°39' W 009°06'3 3.1
2016-Jul-20 07:33N 38°42' W 009°08'0 0.5
2016-Jul-20 06:34N 38°42' W 009°08'4 0.4
2016-Jul-19 20:33N 38°39' W 009°05'0 0.1
2016-Jul-19 19:33N 38°39' W 009°05'3 3.4
2016-Jul-19 18:33N 38°42' W 009°08'2 1.9
2016-Jul-19 17:33N 38°40' W 009°07'2 1.8
2016-Jul-19 16:33N 38°39' W 009°05'0 0.1
2016-Jul-19 15:33N 38°39' W 009°05'0 0.1
2016-Jul-19 14:33N 38°39' W 009°05'0 0.0
2016-Jul-19 12:19N 38°39' W 009°05'1 1.6
2016-Jul-19 11:33N 38°40' W 009°06'0 0.0
2016-Jul-19 10:33N 38°40' W 009°06'1 1.2
2016-Jul-19 09:33N 38°39' W 009°05'0 0.0
2016-Jul-19 08:33N 38°39' W 009°05'0 0.1
2016-Jul-19 07:33N 38°39' W 009°05'1 1.1
2016-Jul-19 06:33N 38°40' W 009°06'1 0.1
2016-Jul-18 20:29N 38°39' W 009°05'0 0.1
2016-Jul-18 19:33N 38°39' W 009°05'4 3.5
2016-Jul-18 18:33N 38°42' W 009°08'2 1.7
2016-Jul-18 17:33N 38°40' W 009°07'2 2.1
2016-Jul-18 16:33N 38°39' W 009°05'0 0.0
2016-Jul-18 15:33N 38°39' W 009°05'0 0.0
2016-Jul-18 14:33N 38°39' W 009°05'0 0.0
2016-Jul-18 10:33N 38°39' W 009°05'1 0.9
2016-Jul-18 09:33N 38°39' W 009°06'0 0.1
2016-Jul-18 08:33N 38°39' W 009°06'3 3.0
2016-Jul-18 07:33N 38°42' W 009°07'1 0.5
2016-Jul-18 06:33N 38°42' W 009°08'4 0.2
2016-Jul-17 10:24N 38°39' W 009°05'1 1.2
2016-Jul-17 09:33N 38°40' W 009°06'0 0.2
2016-Jul-17 08:33N 38°40' W 009°06'0 0.1
2016-Jul-17 07:33N 38°40' W 009°06'0 0.4
2016-Jul-17 06:33N 38°40' W 009°07'3 1.3
2016-Jul-17 04:33N 38°42' W 009°08'4 4.1
2016-Jul-17 03:33N 38°39' W 009°05'0 0.0
2016-Jul-17 02:33N 38°39' W 009°05'0 0.0
2016-Jul-17 01:33N 38°39' W 009°05'0 0.4
2016-Jul-17 00:33N 38°39' W 009°05'0 0.1
2016-Jul-16 23:33N 38°39' W 009°05'0 0.3
2016-Jul-16 22:33N 38°39' W 009°05'1 1.3
2016-Jul-16 21:33N 38°40' W 009°06'1 0.7
2016-Jul-16 20:33N 38°40' W 009°07'0 0.5
2016-Jul-16 19:33N 38°40' W 009°07'1 1.2
2016-Jul-16 18:33N 38°41' W 009°08'0 0.4
2016-Jul-16 17:33N 38°41' W 009°08'0 0.2
2016-Jul-16 16:33N 38°41' W 009°07'0 0.2
2016-Jul-16 15:34N 38°41' W 009°08'0 0.2
2016-Jul-16 14:33N 38°41' W 009°08'3 2.8
2016-Jul-16 13:33N 38°39' W 009°05'0 0.0
2016-Jul-16 12:33N 38°39' W 009°05'1 1.0
2016-Jul-16 11:33N 38°40' W 009°06'0 0.3
2016-Jul-16 10:33N 38°40' W 009°06'1 0.6
2016-Jul-16 09:33N 38°39' W 009°06'0 0.0
2016-Jul-16 08:33N 38°39' W 009°06'0 0.3
2016-Jul-16 07:33N 38°40' W 009°06'0 0.1
2016-Jul-16 06:33N 38°40' W 009°06'3 1.3
2016-Jul-16 04:33N 38°42' W 009°08'4 1.1
2016-Jul-16 01:23N 38°39' W 009°05'0 0.6
2016-Jul-16 00:33N 38°39' W 009°05'0 0.1
2016-Jul-15 23:33N 38°39' W 009°05'0 0.1
2016-Jul-15 22:33N 38°39' W 009°05'2 1.5
2016-Jul-15 21:33N 38°40' W 009°07'0 0.1
2016-Jul-15 20:33N 38°40' W 009°07'2 1.7
2016-Jul-15 19:33N 38°39' W 009°05'0 0.0
2016-Jul-15 18:33N 38°39' W 009°05'2 1.5
2016-Jul-15 17:33N 38°40' W 009°06'3 2.8
2016-Jul-15 16:33N 38°42' W 009°08'4 4.0
2016-Jul-15 15:33N 38°39' W 009°05'0 0.0
2016-Jul-15 12:28N 38°39' W 009°05'1 1.4
2016-Jul-15 11:33N 38°40' W 009°06'0 0.4
2016-Jul-15 10:33N 38°39' W 009°06'1 0.9
2016-Jul-15 09:32N 38°39' W 009°05'0 0.0
2016-Jul-15 08:33N 38°39' W 009°05'0 0.0
2016-Jul-15 07:33N 38°39' W 009°05'1 1.3
2016-Jul-15 06:33N 38°40' W 009°06'3 0.2
2016-Jul-14 18:33N 38°42' W 009°08'0 0.2
2016-Jul-14 17:33N 38°42' W 009°08'2 2.2
2016-Jul-14 16:33N 38°40' W 009°07'2 1.7
2016-Jul-14 15:33N 38°39' W 009°05'1 0.9
2016-Jul-14 14:33N 38°40' W 009°06'1 1.3
2016-Jul-14 13:33N 38°39' W 009°05'0 0.0
2016-Jul-14 11:09N 38°39' W 009°05'4 6.4
2016-Jul-14 10:33N 38°42' W 009°08'4 3.8
2016-Jul-14 09:33N 38°39' W 009°05'1 1.3
2016-Jul-14 08:33N 38°40' W 009°06'1 0.5
2016-Jul-14 07:33N 38°40' W 009°07'2 1.8
2016-Jul-14 06:33N 38°39' W 009°05'0 0.0
2016-Jul-14 05:33N 38°39' W 009°05'0 0.0
2016-Jul-14 04:33N 38°39' W 009°05'  
Track history (hours):
 
Tides and Currents Weather Stations Pressure Air Temp Water Temp Dewpoint Dewpoint Depression Visibility Wind Speed Wind Dir Waves Ship Positions

Gil Vicente

Last reported at 2016-Jul-24 02:33 UTC. Time now 2016-Jul-24 03:02 UTC.
Position N 38°39' W 009°05'.

Length 49 m.

Type: Passenger vessel. MMSI: 263701390.

Date/timePositionNaut miles runAvg speedWind from/ knotsBaromVisibWave heightAir tempDewpointWater temp
2016-Jul-24 02:33N 38°39' W 009°05'0 0.0
2016-Jul-24 01:33N 38°39' W 009°05'0 0.4
2016-Jul-24 00:33N 38°39' W 009°05'0 0.2
2016-Jul-23 23:33N 38°39' W 009°05'0 0.1
2016-Jul-23 22:33N 38°39' W 009°05'1 1.4
2016-Jul-23 21:33N 38°40' W 009°07'0 0.3
2016-Jul-23 20:33N 38°40' W 009°07'0 0.0
2016-Jul-23 19:33N 38°40' W 009°07'0 0.5
2016-Jul-23 18:34N 38°40' W 009°07'1 0.7
2016-Jul-23 17:33N 38°41' W 009°08'0 0.5
2016-Jul-23 16:33N 38°40' W 009°08'0 0.1
2016-Jul-23 15:33N 38°41' W 009°08'0 0.2
2016-Jul-23 14:33N 38°41' W 009°08'3 2.7
2016-Jul-23 13:33N 38°39' W 009°05'0 0.0
2016-Jul-23 12:33N 38°39' W 009°05'1 1.2
2016-Jul-23 11:33N 38°40' W 009°06'0 0.1
2016-Jul-23 10:33N 38°40' W 009°06'0 0.0
2016-Jul-23 09:33N 38°40' W 009°06'0 0.4
2016-Jul-23 08:33N 38°40' W 009°06'0 0.3
2016-Jul-23 07:33N 38°40' W 009°06'0 0.2
2016-Jul-23 06:33N 38°40' W 009°06'2 1.1
2016-Jul-23 04:33N 38°42' W 009°08'3 1.1
2016-Jul-23 01:25N 38°39' W 009°05'0 0.2
2016-Jul-23 00:33N 38°39' W 009°05'0 0.2
2016-Jul-22 23:31N 38°39' W 009°05'0 0.3
2016-Jul-22 22:33N 38°39' W 009°05'1 1.2
2016-Jul-22 21:33N 38°40' W 009°06'0 0.2
2016-Jul-22 20:33N 38°40' W 009°07'2 1.7
2016-Jul-22 19:33N 38°39' W 009°05'0 0.1
2016-Jul-22 18:33N 38°39' W 009°05'1 1.0
2016-Jul-22 17:33N 38°39' W 009°06'3 3.0
2016-Jul-22 16:33N 38°42' W 009°08'4 3.7
2016-Jul-22 15:32N 38°39' W 009°05'0 0.0
2016-Jul-22 12:25N 38°39' W 009°05'1 1.6
2016-Jul-22 11:33N 38°40' W 009°06'1 0.7
2016-Jul-22 10:33N 38°39' W 009°06'1 0.8
2016-Jul-22 09:33N 38°39' W 009°05'0 0.0
2016-Jul-22 08:33N 38°39' W 009°05'0 0.1
2016-Jul-22 07:33N 38°39' W 009°05'0 0.0
2016-Jul-22 05:34N 38°39' W 009°05'0 0.0
2016-Jul-21 20:18N 38°39' W 009°05'3 3.4
2016-Jul-21 19:33N 38°40' W 009°08'1 1.5
2016-Jul-21 18:33N 38°40' W 009°06'3 2.9
2016-Jul-21 17:33N 38°42' W 009°08'0 0.3
2016-Jul-21 16:33N 38°42' W 009°08'1 1.5
2016-Jul-21 15:33N 38°41' W 009°08'3 2.9
2016-Jul-21 14:33N 38°39' W 009°05'1 1.4
2016-Jul-21 13:33N 38°40' W 009°06'0 0.1
2016-Jul-21 12:33N 38°40' W 009°06'0 0.1
2016-Jul-21 11:33N 38°40' W 009°07'1 0.7
2016-Jul-21 10:33N 38°39' W 009°06'1 0.9
2016-Jul-21 09:33N 38°39' W 009°05'0 0.0
2016-Jul-21 08:33N 38°39' W 009°05'0 0.0
2016-Jul-21 07:33N 38°39' W 009°05'1 1.4
2016-Jul-21 06:33N 38°40' W 009°06'1 0.1
2016-Jul-20 20:31N 38°39' W 009°05'0 0.0
2016-Jul-20 19:33N 38°39' W 009°05'4 3.5
2016-Jul-20 18:33N 38°41' W 009°08'2 1.9
2016-Jul-20 17:34N 38°40' W 009°07'2 1.8
2016-Jul-20 16:34N 38°39' W 009°05'0 0.0
2016-Jul-20 15:34N 38°39' W 009°05'0 0.0
2016-Jul-20 14:33N 38°39' W 009°05'0 0.0
2016-Jul-20 10:27N 38°39' W 009°05'1 1.0
2016-Jul-20 09:33N 38°40' W 009°06'0 0.3
2016-Jul-20 08:33N 38°39' W 009°06'3 3.1
2016-Jul-20 07:33N 38°42' W 009°08'0 0.5
2016-Jul-20 06:34N 38°42' W 009°08'4 0.4
2016-Jul-19 20:33N 38°39' W 009°05'0 0.1
2016-Jul-19 19:33N 38°39' W 009°05'3 3.4
2016-Jul-19 18:33N 38°42' W 009°08'2 1.9
2016-Jul-19 17:33N 38°40' W 009°07'2 1.8
2016-Jul-19 16:33N 38°39' W 009°05'0 0.1
2016-Jul-19 15:33N 38°39' W 009°05'0 0.1
2016-Jul-19 14:33N 38°39' W 009°05'0 0.0
2016-Jul-19 12:19N 38°39' W 009°05'1 1.6
2016-Jul-19 11:33N 38°40' W 009°06'0 0.0
2016-Jul-19 10:33N 38°40' W 009°06'1 1.2
2016-Jul-19 09:33N 38°39' W 009°05'0 0.0
2016-Jul-19 08:33N 38°39' W 009°05'0 0.1
2016-Jul-19 07:33N 38°39' W 009°05'1 1.1
2016-Jul-19 06:33N 38°40' W 009°06'1 0.1
2016-Jul-18 20:29N 38°39' W 009°05'0 0.1
2016-Jul-18 19:33N 38°39' W 009°05'4 3.5
2016-Jul-18 18:33N 38°42' W 009°08'2 1.7
2016-Jul-18 17:33N 38°40' W 009°07'2 2.1
2016-Jul-18 16:33N 38°39' W 009°05'0 0.0
2016-Jul-18 15:33N 38°39' W 009°05'0 0.0
2016-Jul-18 14:33N 38°39' W 009°05'0 0.0
2016-Jul-18 10:33N 38°39' W 009°05'1 0.9
2016-Jul-18 09:33N 38°39' W 009°06'0 0.1
2016-Jul-18 08:33N 38°39' W 009°06'3 3.0
2016-Jul-18 07:33N 38°42' W 009°07'1 0.5
2016-Jul-18 06:33N 38°42' W 009°08'4 0.2
2016-Jul-17 10:24N 38°39' W 009°05'1 1.2
2016-Jul-17 09:33N 38°40' W 009°06'0 0.2
2016-Jul-17 08:33N 38°40' W 009°06'0 0.1
2016-Jul-17 07:33N 38°40' W 009°06'0 0.4
2016-Jul-17 06:33N 38°40' W 009°07'3 1.3
2016-Jul-17 04:33N 38°42' W 009°08'4 4.1
2016-Jul-17 03:33N 38°39' W 009°05'0 0.0
2016-Jul-17 02:33N 38°39' W 009°05'0 0.0
2016-Jul-17 01:33N 38°39' W 009°05'0 0.4
2016-Jul-17 00:33N 38°39' W 009°05'0 0.1
2016-Jul-16 23:33N 38°39' W 009°05'0 0.3
2016-Jul-16 22:33N 38°39' W 009°05'1 1.3
2016-Jul-16 21:33N 38°40' W 009°06'1 0.7
2016-Jul-16 20:33N 38°40' W 009°07'0 0.5
2016-Jul-16 19:33N 38°40' W 009°07'1 1.2
2016-Jul-16 18:33N 38°41' W 009°08'0 0.4
2016-Jul-16 17:33N 38°41' W 009°08'0 0.2
2016-Jul-16 16:33N 38°41' W 009°07'0 0.2
2016-Jul-16 15:34N 38°41' W 009°08'0 0.2
2016-Jul-16 14:33N 38°41' W 009°08'3 2.8
2016-Jul-16 13:33N 38°39' W 009°05'0 0.0
2016-Jul-16 12:33N 38°39' W 009°05'1 1.0
2016-Jul-16 11:33N 38°40' W 009°06'0 0.3
2016-Jul-16 10:33N 38°40' W 009°06'1 0.6
2016-Jul-16 09:33N 38°39' W 009°06'0 0.0
2016-Jul-16 08:33N 38°39' W 009°06'0 0.3
2016-Jul-16 07:33N 38°40' W 009°06'0 0.1
2016-Jul-16 06:33N 38°40' W 009°06'3 1.3
2016-Jul-16 04:33N 38°42' W 009°08'4 1.1
2016-Jul-16 01:23N 38°39' W 009°05'0 0.6
2016-Jul-16 00:33N 38°39' W 009°05'0 0.1
2016-Jul-15 23:33N 38°39' W 009°05'0 0.1
2016-Jul-15 22:33N 38°39' W 009°05'2 1.5
2016-Jul-15 21:33N 38°40' W 009°07'0 0.1
2016-Jul-15 20:33N 38°40' W 009°07'2 1.7
2016-Jul-15 19:33N 38°39' W 009°05'0 0.0
2016-Jul-15 18:33N 38°39' W 009°05'2 1.5
2016-Jul-15 17:33N 38°40' W 009°06'3 2.8
2016-Jul-15 16:33N 38°42' W 009°08'4 4.0
2016-Jul-15 15:33N 38°39' W 009°05'0 0.0
2016-Jul-15 12:28N 38°39' W 009°05'1 1.4
2016-Jul-15 11:33N 38°40' W 009°06'0 0.4
2016-Jul-15 10:33N 38°39' W 009°06'1 0.9
2016-Jul-15 09:32N 38°39' W 009°05'0 0.0
2016-Jul-15 08:33N 38°39' W 009°05'0 0.0
2016-Jul-15 07:33N 38°39' W 009°05'1 1.3
2016-Jul-15 06:33N 38°40' W 009°06'3 0.2
2016-Jul-14 18:33N 38°42' W 009°08'0 0.2
2016-Jul-14 17:33N 38°42' W 009°08'2 2.2
2016-Jul-14 16:33N 38°40' W 009°07'2 1.7
2016-Jul-14 15:33N 38°39' W 009°05'1 0.9
2016-Jul-14 14:33N 38°40' W 009°06'1 1.3
2016-Jul-14 13:33N 38°39' W 009°05'0 0.0
2016-Jul-14 11:09N 38°39' W 009°05'4 6.4
2016-Jul-14 10:33N 38°42' W 009°08'4 3.8
2016-Jul-14 09:33N 38°39' W 009°05'1 1.3
2016-Jul-14 08:33N 38°40' W 009°06'1 0.5
2016-Jul-14 07:33N 38°40' W 009°07'2 1.8
2016-Jul-14 06:33N 38°39' W 009°05'0 0.0
2016-Jul-14 05:33N 38°39' W 009°05'0 0.0
2016-Jul-14 04:33N 38°39' W 009°05'  

Dump ship's entire track history